createdAt,value
2019-02-19T00:01:33.151Z,7.20
2019-02-19T00:03:05.420Z,7.30
2019-02-19T00:04:37.677Z,7.20
2019-02-19T00:06:09.876Z,7.30
2019-02-19T00:07:42.146Z,7.20
2019-02-19T00:09:14.262Z,7.30
2019-02-19T00:10:46.427Z,7.30
2019-02-19T00:12:18.648Z,7.30
2019-02-19T00:13:50.809Z,7.30
2019-02-19T00:15:23.083Z,7.40
2019-02-19T00:16:55.329Z,7.30
2019-02-19T00:18:27.449Z,7.30
2019-02-19T00:19:59.608Z,7.30
2019-02-19T00:21:31.849Z,7.30
2019-02-19T00:23:04.112Z,7.30
2019-02-19T00:24:36.325Z,7.30
2019-02-19T00:26:16.135Z,7.30
2019-02-19T00:27:48.384Z,7.40
2019-02-19T00:29:20.641Z,7.30
2019-02-19T00:30:52.962Z,7.30
2019-02-19T00:32:25.105Z,7.30
2019-02-19T00:33:57.208Z,7.30
2019-02-19T00:35:29.399Z,7.20
2019-02-19T00:37:01.649Z,7.20
2019-02-19T00:38:33.771Z,7.20
2019-02-19T00:40:06.169Z,7.20
2019-02-19T00:41:38.403Z,7.20
2019-02-19T00:43:10.516Z,7.20
2019-02-19T00:44:42.663Z,7.20
2019-02-19T00:46:14.969Z,7.20
2019-02-19T00:47:47.126Z,7.10
2019-02-19T00:49:19.376Z,7.20
2019-02-19T00:50:51.627Z,7.20
2019-02-19T00:52:23.871Z,7.20
2019-02-19T00:53:56.067Z,7.10
2019-02-19T00:55:28.284Z,7.10
2019-02-19T00:57:00.464Z,7.20
2019-02-19T00:58:32.761Z,7.10
2019-02-19T01:00:06.513Z,7.10
2019-02-19T01:01:38.796Z,7.10
2019-02-19T01:03:11.052Z,7.10
2019-02-19T01:04:43.253Z,7.10
2019-02-19T01:06:15.512Z,7.10
2019-02-19T01:07:48.426Z,7.10
2019-02-19T01:09:20.527Z,7.10
2019-02-19T01:10:52.793Z,7.20
2019-02-19T01:12:25.040Z,7.20
2019-02-19T01:13:57.173Z,7.20
2019-02-19T01:15:29.494Z,7.20
2019-02-19T01:17:01.608Z,7.20
2019-02-19T01:18:33.748Z,7.20
2019-02-19T01:20:06.713Z,7.30
2019-02-19T01:21:38.847Z,7.20
2019-02-19T01:23:10.941Z,7.20
2019-02-19T01:24:43.224Z,7.20
2019-02-19T01:26:15.496Z,7.20
2019-02-19T01:27:47.661Z,7.20
2019-02-19T01:29:19.921Z,7.20
2019-02-19T01:30:52.203Z,7.20
2019-02-19T01:32:24.385Z,7.20
2019-02-19T01:33:56.633Z,7.20
2019-02-19T01:35:28.878Z,7.20
2019-02-19T01:37:01.103Z,7.20
2019-02-19T01:38:33.325Z,7.20
2019-02-19T01:40:06.038Z,7.10
2019-02-19T01:41:38.194Z,7.10
2019-02-19T01:43:10.493Z,7.10
2019-02-19T01:44:42.627Z,7.10
2019-02-19T01:46:14.852Z,7.00
2019-02-19T01:47:47.100Z,7.00
2019-02-19T01:49:19.208Z,6.90
2019-02-19T01:50:51.306Z,6.90
2019-02-19T01:52:23.456Z,6.90
2019-02-19T01:53:55.730Z,6.80
2019-02-19T01:55:27.787Z,6.80
2019-02-19T01:56:59.958Z,6.80
2019-02-19T01:58:32.142Z,6.80
2019-02-19T02:00:05.025Z,6.80
2019-02-19T02:01:37.171Z,6.80
2019-02-19T02:03:09.466Z,6.80
2019-02-19T02:04:41.589Z,6.80
2019-02-19T02:06:13.792Z,6.80
2019-02-19T02:07:46.082Z,6.80
2019-02-19T02:09:18.374Z,6.70
2019-02-19T02:10:50.617Z,6.70
2019-02-19T02:12:22.922Z,6.70
2019-02-19T02:13:55.173Z,6.70
2019-02-19T02:15:27.445Z,6.60
2019-02-19T02:16:59.734Z,6.60
2019-02-19T02:18:31.993Z,6.60
2019-02-19T02:20:04.909Z,6.60
2019-02-19T02:21:37.193Z,6.60
2019-02-19T02:23:09.321Z,6.60
2019-02-19T02:24:41.529Z,6.50
2019-02-19T02:26:13.787Z,6.50
2019-02-19T02:27:45.940Z,6.50
2019-02-19T02:29:18.194Z,6.50
2019-02-19T02:30:50.331Z,6.50
2019-02-19T02:32:22.445Z,6.40
2019-02-19T02:33:54.739Z,6.40
2019-02-19T02:35:27.024Z,6.40
2019-02-19T02:36:59.267Z,6.40
2019-02-19T02:38:31.509Z,6.40
2019-02-19T02:40:03.772Z,6.40
2019-02-19T02:41:36.074Z,6.40
2019-02-19T02:43:08.171Z,6.40
2019-02-19T02:44:40.415Z,6.40
2019-02-19T02:46:12.656Z,6.30
2019-02-19T02:47:44.966Z,6.30
2019-02-19T02:49:17.067Z,6.30
2019-02-19T02:50:49.168Z,6.30
2019-02-19T02:52:21.449Z,6.30
2019-02-19T02:53:53.653Z,6.30
2019-02-19T02:55:25.868Z,6.40
2019-02-19T02:56:58.119Z,6.30
2019-02-19T02:58:30.387Z,6.40
2019-02-19T03:00:02.792Z,6.40
2019-02-19T03:01:34.945Z,6.40
2019-02-19T03:03:07.113Z,6.40
2019-02-19T03:04:39.183Z,6.40
2019-02-19T03:06:16.589Z,6.40
2019-02-19T03:07:54.701Z,6.40
2019-02-19T03:09:26.947Z,6.40
2019-02-19T03:10:59.248Z,6.40
2019-02-19T03:12:31.449Z,6.40
2019-02-19T03:14:03.736Z,6.40
2019-02-19T03:15:36.092Z,6.40
2019-02-19T03:17:08.330Z,6.40
2019-02-19T03:18:40.608Z,6.40
2019-02-19T03:20:12.817Z,6.40
2019-02-19T03:21:45.121Z,6.40
2019-02-19T03:23:17.397Z,6.40
2019-02-19T03:24:49.667Z,6.30
2019-02-19T03:26:21.907Z,6.40
2019-02-19T03:27:54.097Z,6.40
2019-02-19T03:29:26.357Z,6.40
2019-02-19T03:30:58.600Z,6.40
2019-02-19T03:32:30.886Z,6.40
2019-02-19T03:34:03.200Z,6.40
2019-02-19T03:35:35.496Z,6.40
2019-02-19T03:37:07.584Z,6.40
2019-02-19T03:38:39.853Z,6.40
2019-02-19T03:40:12.128Z,6.40
2019-02-19T03:41:44.441Z,6.50
2019-02-19T03:43:16.658Z,6.50
2019-02-19T03:44:48.931Z,6.50
2019-02-19T03:46:21.052Z,6.50
2019-02-19T03:47:53.336Z,6.50
2019-02-19T03:49:25.438Z,6.50
2019-02-19T03:50:57.703Z,6.40
2019-02-19T03:52:30.010Z,6.50
2019-02-19T03:54:02.353Z,6.50
2019-02-19T03:55:34.668Z,6.50
2019-02-19T03:57:06.739Z,6.40
2019-02-19T03:58:39.019Z,6.40
2019-02-19T04:00:11.217Z,6.40
2019-02-19T04:01:43.356Z,6.40
2019-02-19T04:03:15.745Z,6.40
2019-02-19T04:04:47.993Z,6.40
2019-02-19T04:06:20.444Z,6.30
2019-02-19T04:07:52.616Z,6.40
2019-02-19T04:09:24.739Z,6.40
2019-02-19T04:10:56.953Z,6.30
2019-02-19T04:12:29.061Z,6.40
2019-02-19T04:14:01.336Z,6.40
2019-02-19T04:15:33.564Z,6.40
2019-02-19T04:17:05.785Z,6.40
2019-02-19T04:18:37.878Z,6.40
2019-02-19T04:20:10.013Z,6.30
2019-02-19T04:21:42.342Z,6.30
2019-02-19T04:23:14.636Z,6.30
2019-02-19T04:24:46.894Z,6.30
2019-02-19T04:26:19.034Z,6.30
2019-02-19T04:27:51.270Z,6.20
2019-02-19T04:29:23.517Z,6.20
2019-02-19T04:30:55.793Z,6.30
2019-02-19T04:32:28.052Z,6.30
2019-02-19T04:34:00.152Z,6.20
2019-02-19T04:35:32.406Z,6.20
2019-02-19T04:37:04.665Z,6.30
2019-02-19T04:38:36.884Z,6.20
2019-02-19T04:40:09.128Z,6.30
2019-02-19T04:41:41.413Z,6.20
2019-02-19T04:43:13.537Z,6.20
2019-02-19T04:44:45.783Z,6.20
2019-02-19T04:46:18.086Z,6.20
2019-02-19T04:47:50.317Z,6.20
2019-02-19T04:49:22.633Z,6.20
2019-02-19T04:50:54.856Z,6.10
2019-02-19T04:52:27.097Z,6.10
2019-02-19T04:53:59.340Z,6.10
2019-02-19T04:55:31.581Z,6.10
2019-02-19T04:57:03.834Z,6.10
2019-02-19T04:58:35.999Z,6.10
2019-02-19T05:00:10.010Z,6.00
2019-02-19T05:01:42.233Z,6.10
2019-02-19T05:03:14.555Z,6.10
2019-02-19T05:04:46.788Z,6.10
2019-02-19T05:06:19.061Z,6.10
2019-02-19T05:07:51.350Z,6.10
2019-02-19T05:09:23.559Z,6.00
2019-02-19T05:10:55.833Z,6.10
2019-02-19T05:12:27.959Z,6.10
2019-02-19T05:14:00.196Z,6.10
2019-02-19T05:15:32.452Z,6.10
2019-02-19T05:17:04.685Z,6.10
2019-02-19T05:18:36.991Z,6.10
2019-02-19T05:20:09.107Z,6.10
2019-02-19T05:21:41.223Z,6.10
2019-02-19T05:23:13.502Z,6.10
2019-02-19T05:24:45.799Z,6.20
2019-02-19T05:26:18.077Z,6.20
2019-02-19T05:27:50.327Z,6.30
2019-02-19T05:29:22.543Z,6.20
2019-02-19T05:30:54.772Z,6.20
2019-02-19T05:32:26.844Z,6.20
2019-02-19T05:33:59.093Z,6.30
2019-02-19T05:35:31.214Z,6.30
2019-02-19T05:37:03.482Z,6.30
2019-02-19T05:38:35.762Z,6.30
2019-02-19T05:40:08.761Z,6.30
2019-02-19T05:41:41.057Z,6.30
2019-02-19T05:43:13.318Z,6.30
2019-02-19T05:44:45.453Z,6.30
2019-02-19T05:46:17.733Z,6.30
2019-02-19T05:47:49.994Z,6.30
2019-02-19T05:49:22.094Z,6.30
2019-02-19T05:50:54.176Z,6.30
2019-02-19T05:52:26.315Z,6.30
2019-02-19T05:53:58.674Z,6.30
2019-02-19T05:55:30.803Z,6.30
2019-02-19T05:57:03.050Z,6.30
2019-02-19T05:58:35.213Z,6.30
2019-02-19T06:00:09.280Z,6.30
2019-02-19T06:01:41.535Z,6.30
2019-02-19T06:03:13.777Z,6.30
2019-02-19T06:04:46.084Z,6.20
2019-02-19T06:06:18.273Z,6.30
2019-02-19T06:07:50.551Z,6.30
2019-02-19T06:09:22.844Z,6.30
2019-02-19T06:10:55.087Z,6.30
2019-02-19T06:12:27.346Z,6.30
2019-02-19T06:13:59.633Z,6.40
2019-02-19T06:15:31.967Z,6.40
2019-02-19T06:17:04.200Z,6.40
2019-02-19T06:18:36.466Z,6.40
2019-02-19T06:20:08.752Z,6.40
2019-02-19T06:21:40.967Z,6.40
2019-02-19T06:23:13.204Z,6.40
2019-02-19T06:24:45.599Z,6.40
2019-02-19T06:26:17.960Z,6.40
2019-02-19T06:27:50.216Z,6.40
2019-02-19T06:29:22.338Z,6.40
2019-02-19T06:30:54.538Z,6.40
2019-02-19T06:32:26.639Z,6.40
2019-02-19T06:33:58.801Z,6.40
2019-02-19T06:35:30.980Z,6.40
2019-02-19T06:37:03.129Z,6.40
2019-02-19T06:38:35.527Z,6.40
2019-02-19T06:40:15.732Z,6.40
2019-02-19T06:41:47.865Z,6.40
2019-02-19T06:43:19.984Z,6.40
2019-02-19T06:44:52.265Z,6.40
2019-02-19T06:46:24.469Z,6.40
2019-02-19T06:47:56.585Z,6.40
2019-02-19T06:49:28.685Z,6.40
2019-02-19T06:51:00.813Z,6.40
2019-02-19T06:52:32.947Z,6.60
2019-02-19T06:54:05.154Z,6.70
2019-02-19T06:55:37.372Z,6.80
2019-02-19T06:57:09.530Z,7.00
2019-02-19T06:58:41.761Z,7.20
2019-02-19T07:00:13.910Z,7.30
2019-02-19T07:02:04.167Z,7.60
2019-02-19T07:03:43.549Z,8.10
2019-02-19T07:05:19.995Z,8.50
2019-02-19T07:06:52.176Z,8.80
2019-02-19T07:08:24.509Z,8.80
2019-02-19T07:09:57.471Z,8.70
2019-02-19T07:11:29.717Z,8.50
2019-02-19T07:13:01.948Z,8.40
2019-02-19T07:14:34.277Z,8.20
2019-02-19T07:16:06.548Z,8.10
2019-02-19T07:17:38.709Z,8.00
2019-02-19T07:19:10.940Z,7.80
2019-02-19T07:20:43.272Z,7.80
2019-02-19T07:22:15.487Z,7.70
2019-02-19T07:23:47.670Z,7.60
2019-02-19T07:25:19.971Z,7.50
2019-02-19T07:26:52.270Z,7.30
2019-02-19T07:28:24.433Z,7.30
2019-02-19T07:29:56.645Z,7.30
2019-02-19T07:31:28.892Z,7.20
2019-02-19T07:33:01.142Z,7.20
2019-02-19T07:34:33.378Z,7.20
2019-02-19T07:36:05.483Z,7.20
2019-02-19T07:37:37.696Z,7.20
2019-02-19T07:39:09.801Z,7.10
2019-02-19T07:40:42.120Z,7.10
2019-02-19T07:42:14.354Z,7.00
2019-02-19T07:43:46.594Z,7.00
2019-02-19T07:45:18.998Z,7.00
2019-02-19T07:46:51.297Z,6.90
2019-02-19T07:48:23.530Z,6.90
2019-02-19T07:49:55.752Z,7.00
2019-02-19T07:51:27.891Z,7.00
2019-02-19T07:53:00.106Z,7.00
2019-02-19T07:54:32.458Z,7.00
2019-02-19T07:56:04.669Z,7.10
2019-02-19T07:57:36.844Z,7.00
2019-02-19T07:59:09.006Z,7.00
2019-02-19T08:00:41.273Z,7.00
2019-02-19T08:02:13.385Z,6.90
2019-02-19T08:03:45.649Z,6.90
2019-02-19T08:05:17.871Z,6.90
2019-02-19T08:06:49.993Z,6.90
2019-02-19T08:08:22.137Z,6.90
2019-02-19T08:09:54.379Z,6.90
2019-02-19T08:11:26.722Z,6.90
2019-02-19T08:12:58.861Z,6.90
2019-02-19T08:14:31.118Z,6.90
2019-02-19T08:16:03.454Z,6.80
2019-02-19T08:17:35.786Z,6.90
2019-02-19T08:19:08.009Z,6.80
2019-02-19T08:20:40.287Z,6.80
2019-02-19T08:22:12.550Z,6.80
2019-02-19T08:23:44.690Z,6.80
2019-02-19T08:25:16.958Z,6.80
2019-02-19T08:26:49.153Z,6.80
2019-02-19T08:28:21.471Z,6.80
2019-02-19T08:29:53.774Z,6.80
2019-02-19T08:31:26.005Z,6.80
2019-02-19T08:32:58.223Z,6.80
2019-02-19T08:34:30.499Z,6.80
2019-02-19T08:36:02.740Z,6.90
2019-02-19T08:37:34.843Z,6.90
2019-02-19T08:39:07.539Z,6.90
2019-02-19T08:40:39.716Z,7.00
2019-02-19T08:42:11.941Z,7.00
2019-02-19T08:43:44.207Z,7.00
2019-02-19T08:45:16.490Z,7.00
2019-02-19T08:46:48.758Z,7.00
2019-02-19T08:48:21.013Z,7.00
2019-02-19T08:49:53.311Z,7.00
2019-02-19T08:51:25.626Z,7.10
2019-02-19T08:52:57.823Z,7.10
2019-02-19T08:54:29.988Z,7.10
2019-02-19T08:56:02.300Z,7.10
2019-02-19T08:57:34.544Z,7.10
2019-02-19T08:59:06.679Z,7.10
2019-02-19T09:00:38.940Z,7.10
2019-02-19T09:02:11.164Z,7.10
2019-02-19T09:03:43.457Z,7.20
2019-02-19T09:05:15.707Z,7.20
2019-02-19T09:06:47.913Z,7.20
2019-02-19T09:08:20.050Z,7.20
2019-02-19T09:09:52.165Z,7.20
2019-02-19T09:11:24.388Z,7.20
2019-02-19T09:12:56.542Z,7.20
2019-02-19T09:14:28.822Z,7.20
2019-02-19T09:16:01.073Z,7.20
2019-02-19T09:17:33.218Z,7.20
2019-02-19T09:19:05.360Z,7.20
2019-02-19T09:20:37.610Z,7.10
2019-02-19T09:22:09.934Z,7.10
2019-02-19T09:23:42.432Z,7.10
2019-02-19T09:25:17.380Z,7.10
2019-02-19T09:26:49.616Z,7.20
2019-02-19T09:28:21.763Z,7.10
2019-02-19T09:29:54.070Z,7.10
2019-02-19T09:31:26.339Z,7.20
2019-02-19T09:32:58.520Z,7.20
2019-02-19T09:34:30.751Z,7.20
2019-02-19T09:36:03.022Z,7.20
2019-02-19T09:37:35.147Z,7.20
2019-02-19T09:39:07.396Z,7.20
2019-02-19T09:40:39.681Z,7.30
2019-02-19T09:42:11.934Z,7.30
2019-02-19T09:43:44.185Z,7.30
2019-02-19T09:45:16.478Z,7.30
2019-02-19T09:46:48.621Z,7.30
2019-02-19T09:48:20.853Z,7.30
2019-02-19T09:49:53.073Z,7.30
2019-02-19T09:51:25.303Z,7.30
2019-02-19T09:53:00.062Z,7.30
2019-02-19T09:54:31.595Z,7.20
2019-02-19T09:56:03.872Z,7.20
2019-02-19T09:57:36.034Z,7.20
2019-02-19T09:59:08.153Z,7.20
2019-02-19T10:00:40.433Z,7.20
2019-02-19T10:02:12.754Z,7.10
2019-02-19T10:03:44.992Z,7.20
2019-02-19T10:05:17.125Z,7.20
2019-02-19T10:06:49.412Z,7.20
2019-02-19T10:08:21.617Z,7.20
2019-02-19T10:09:53.907Z,7.20
2019-02-19T10:11:26.143Z,7.30
2019-02-19T10:12:58.321Z,7.30
2019-02-19T10:14:30.987Z,7.20
2019-02-19T10:16:03.072Z,7.30
2019-02-19T10:17:35.388Z,7.30
2019-02-19T10:19:07.652Z,7.40
2019-02-19T10:20:39.910Z,7.40
2019-02-19T10:22:12.164Z,7.50
2019-02-19T10:23:44.417Z,7.50
2019-02-19T10:25:16.672Z,7.60
2019-02-19T10:26:49.680Z,7.60
2019-02-19T10:28:22.180Z,7.70
2019-02-19T10:29:54.417Z,7.80
2019-02-19T10:31:26.680Z,7.80
2019-02-19T10:32:58.840Z,7.90
2019-02-19T10:34:31.115Z,8.00
2019-02-19T10:36:03.218Z,8.00
2019-02-19T10:37:35.454Z,8.00
2019-02-19T10:39:10.709Z,8.10
2019-02-19T10:40:42.972Z,8.10
2019-02-19T10:42:15.206Z,8.20
2019-02-19T10:43:47.488Z,8.20
2019-02-19T10:45:19.788Z,8.30
2019-02-19T10:46:52.058Z,8.30
2019-02-19T10:48:24.195Z,8.40
2019-02-19T10:49:56.357Z,8.40
2019-02-19T10:51:28.646Z,8.50
2019-02-19T10:53:00.997Z,8.60
2019-02-19T10:54:33.195Z,8.60
2019-02-19T10:56:05.543Z,8.70
2019-02-19T10:57:37.814Z,8.80
2019-02-19T10:59:10.003Z,9.00
2019-02-19T11:00:42.280Z,9.00
2019-02-19T11:02:14.404Z,9.10
2019-02-19T11:03:46.539Z,9.30
2019-02-19T11:05:18.974Z,9.30
2019-02-19T11:06:51.177Z,9.40
2019-02-19T11:08:23.421Z,9.40
2019-02-19T11:09:55.707Z,9.40
2019-02-19T11:11:27.878Z,9.40
2019-02-19T11:13:00.010Z,9.40
2019-02-19T11:14:32.273Z,9.30
2019-02-19T11:16:04.516Z,9.30
2019-02-19T11:17:36.726Z,9.30
2019-02-19T11:19:08.976Z,9.30
2019-02-19T11:20:41.085Z,9.30
2019-02-19T11:22:13.694Z,9.30
2019-02-19T11:23:46.098Z,9.30
2019-02-19T11:25:18.425Z,9.40
2019-02-19T11:26:50.691Z,9.40
2019-02-19T11:28:22.953Z,9.50
2019-02-19T11:29:55.214Z,9.50
2019-02-19T11:31:27.505Z,9.60
2019-02-19T11:32:59.669Z,9.70
2019-02-19T11:34:31.954Z,9.70
2019-02-19T11:36:04.084Z,9.70
2019-02-19T11:37:37.460Z,9.80
2019-02-19T11:39:10.850Z,9.80
2019-02-19T11:40:42.980Z,10.00
2019-02-19T11:42:15.203Z,10.10
2019-02-19T11:43:47.456Z,10.30
2019-02-19T11:45:19.556Z,10.50
2019-02-19T11:46:51.822Z,10.70
2019-02-19T11:48:24.043Z,10.90
2019-02-19T11:49:56.299Z,11.10
2019-02-19T11:51:28.493Z,11.30
2019-02-19T11:53:00.626Z,11.50
2019-02-19T11:54:32.775Z,11.70
2019-02-19T11:56:05.050Z,11.80
2019-02-19T11:57:37.322Z,11.90
2019-02-19T11:59:09.553Z,12.10
2019-02-19T12:00:43.625Z,12.20
2019-02-19T12:02:18.462Z,12.40
2019-02-19T12:03:52.855Z,12.60
2019-02-19T12:05:25.123Z,12.80
2019-02-19T12:06:57.259Z,13.00
2019-02-19T12:08:38.808Z,13.20
2019-02-19T12:10:06.564Z,13.40
2019-02-19T12:11:38.844Z,13.50
2019-02-19T12:13:11.084Z,13.50
2019-02-19T12:14:43.316Z,13.60
2019-02-19T12:16:15.537Z,13.70
2019-02-19T12:17:47.891Z,13.70
2019-02-19T12:19:20.222Z,13.70
2019-02-19T12:20:53.020Z,13.60
2019-02-19T12:22:25.359Z,13.60
2019-02-19T12:23:57.620Z,13.50
2019-02-19T12:25:29.919Z,13.50
2019-02-19T12:27:02.241Z,13.50
2019-02-19T12:28:34.480Z,13.50
2019-02-19T12:30:12.490Z,13.50
2019-02-19T12:31:47.080Z,13.50
2019-02-19T12:33:19.376Z,13.40
2019-02-19T12:34:51.600Z,13.40
2019-02-19T12:36:23.813Z,13.30
2019-02-19T12:37:56.102Z,13.30
2019-02-19T12:39:28.346Z,13.30
2019-02-19T12:41:00.497Z,13.20
2019-02-19T12:42:32.776Z,13.10
2019-02-19T12:44:04.998Z,13.10
2019-02-19T12:45:37.223Z,13.10
2019-02-19T12:47:09.387Z,13.10
2019-02-19T12:48:41.711Z,13.00
2019-02-19T12:50:14.123Z,13.00
2019-02-19T12:51:46.349Z,13.10
2019-02-19T12:53:18.606Z,13.20
2019-02-19T12:54:50.885Z,13.20
2019-02-19T12:56:22.965Z,13.30
2019-02-19T12:57:55.190Z,13.30
2019-02-19T12:59:27.515Z,13.20
2019-02-19T13:00:59.703Z,13.10
2019-02-19T13:02:31.961Z,13.00
2019-02-19T13:04:04.257Z,13.00
2019-02-19T13:05:36.552Z,13.00
2019-02-19T13:07:08.818Z,12.90
2019-02-19T13:08:40.943Z,12.90
2019-02-19T13:10:13.109Z,12.90
2019-02-19T13:11:45.379Z,13.00
2019-02-19T13:13:17.604Z,13.00
2019-02-19T13:14:49.748Z,13.10
2019-02-19T13:16:21.886Z,13.10
2019-02-19T13:17:54.120Z,13.00
2019-02-19T13:19:26.401Z,13.00
2019-02-19T13:20:58.687Z,13.10
2019-02-19T13:22:30.931Z,13.00
2019-02-19T13:24:03.065Z,13.00
2019-02-19T13:25:35.387Z,13.10
2019-02-19T13:27:07.709Z,13.10
2019-02-19T13:28:39.940Z,12.90
2019-02-19T13:30:13.546Z,12.80
2019-02-19T13:31:45.782Z,12.80
2019-02-19T13:33:17.936Z,12.80
2019-02-19T13:34:50.067Z,12.80
2019-02-19T13:36:22.302Z,12.80
2019-02-19T13:37:54.396Z,12.70
2019-02-19T13:39:26.793Z,12.80
2019-02-19T13:40:59.210Z,12.80
2019-02-19T13:42:31.420Z,12.70
2019-02-19T13:44:03.675Z,12.70
2019-02-19T13:45:35.872Z,12.60
2019-02-19T13:47:08.103Z,12.50
2019-02-19T13:48:40.194Z,12.50
2019-02-19T13:50:14.848Z,12.40
2019-02-19T13:51:47.078Z,12.50
2019-02-19T13:53:32.447Z,12.40
2019-02-19T13:55:10.148Z,12.40
2019-02-19T13:56:42.364Z,12.40
2019-02-19T13:58:14.622Z,12.40
2019-02-19T13:59:46.895Z,12.40
2019-02-19T14:01:19.108Z,12.50
2019-02-19T14:02:51.371Z,12.50
2019-02-19T14:04:23.641Z,12.50
2019-02-19T14:05:55.930Z,12.50
2019-02-19T14:07:28.257Z,12.40
2019-02-19T14:09:00.366Z,12.40
2019-02-19T14:10:32.652Z,12.30
2019-02-19T14:12:04.932Z,12.30
2019-02-19T14:13:39.910Z,12.30
2019-02-19T14:15:28.714Z,12.30
2019-02-19T14:17:06.819Z,12.30
2019-02-19T14:18:52.775Z,12.30
2019-02-19T14:20:42.875Z,12.20
2019-02-19T14:22:34.611Z,12.20
2019-02-19T14:24:16.452Z,12.20
2019-02-19T14:26:11.033Z,12.20
2019-02-19T14:28:17.839Z,12.10
2019-02-19T14:30:09.977Z,12.10
2019-02-19T14:31:52.465Z,12.10
2019-02-19T14:33:37.935Z,12.10
2019-02-19T14:35:35.818Z,12.10
2019-02-19T14:37:31.346Z,12.10
2019-02-19T14:39:29.641Z,12.00
2019-02-19T14:41:20.258Z,11.90
2019-02-19T14:43:12.065Z,11.90
2019-02-19T14:44:59.485Z,11.90
2019-02-19T14:46:41.778Z,11.90
2019-02-19T14:48:32.700Z,11.90
2019-02-19T14:50:23.101Z,11.90
2019-02-19T14:52:17.931Z,11.80
2019-02-19T14:54:08.416Z,11.80
2019-02-19T14:56:02.693Z,11.70
2019-02-19T14:57:49.962Z,11.70
2019-02-19T14:59:33.098Z,11.60
2019-02-19T15:01:17.932Z,11.60
2019-02-19T15:03:12.082Z,11.60
2019-02-19T15:05:19.072Z,11.60
2019-02-19T15:07:23.172Z,11.60
2019-02-19T15:09:29.711Z,11.50
2019-02-19T15:11:20.195Z,11.40
2019-02-19T15:13:17.768Z,11.40
2019-02-19T15:15:07.485Z,11.40
2019-02-19T15:17:08.102Z,11.30
2019-02-19T15:19:02.696Z,11.30
2019-02-19T15:20:54.499Z,11.30
2019-02-19T15:22:49.269Z,11.30
2019-02-19T15:24:58.844Z,11.30
2019-02-19T15:26:58.399Z,11.30
2019-02-19T15:28:48.882Z,11.30
2019-02-19T15:30:41.816Z,11.30
2019-02-19T15:32:32.537Z,11.30
2019-02-19T15:34:35.582Z,11.30
2019-02-19T15:36:26.291Z,11.30
2019-02-19T15:38:15.578Z,11.20
2019-02-19T15:40:01.521Z,11.20
2019-02-19T15:41:52.010Z,11.10
2019-02-19T15:43:55.530Z,11.10
2019-02-19T15:45:47.284Z,11.10
2019-02-19T15:47:53.909Z,11.10
2019-02-19T15:49:47.847Z,11.00
2019-02-19T15:51:40.066Z,11.00
2019-02-19T15:53:40.747Z,11.00
2019-02-19T15:55:31.268Z,11.00
2019-02-19T15:57:24.966Z,11.00
2019-02-19T15:59:22.498Z,10.90
2019-02-19T16:01:12.821Z,10.90
2019-02-19T16:02:55.984Z,10.90
2019-02-19T16:04:56.408Z,10.90
2019-02-19T16:06:50.380Z,10.90
2019-02-19T16:08:44.934Z,10.80
2019-02-19T16:10:48.691Z,10.80
2019-02-19T16:12:43.305Z,10.80
2019-02-19T16:14:41.082Z,10.80
2019-02-19T16:16:35.292Z,10.80
2019-02-19T16:18:16.545Z,10.70
2019-02-19T16:20:00.305Z,10.70
2019-02-19T16:21:48.929Z,10.70
2019-02-19T16:23:33.878Z,10.70
2019-02-19T16:25:16.530Z,10.70
2019-02-19T16:26:57.062Z,10.60
2019-02-19T16:28:57.880Z,10.60
2019-02-19T16:30:52.466Z,10.50
2019-02-19T16:32:44.224Z,10.50
2019-02-19T16:34:24.961Z,10.50
2019-02-19T16:36:05.840Z,10.40
2019-02-19T16:38:06.876Z,10.40
2019-02-19T16:39:57.120Z,10.40
2019-02-19T16:41:54.694Z,10.40
2019-02-19T16:43:45.229Z,10.30
2019-02-19T16:45:27.780Z,10.30
2019-02-19T16:47:37.700Z,10.20
2019-02-19T16:49:38.484Z,10.20
2019-02-19T16:51:21.070Z,10.20
2019-02-19T16:52:59.170Z,10.20
2019-02-19T16:54:38.659Z,10.10
2019-02-19T16:56:30.487Z,10.10
2019-02-19T16:58:17.121Z,10.10
2019-02-19T17:00:14.889Z,10.00
2019-02-19T17:01:54.637Z,10.00
2019-02-19T17:03:35.151Z,9.90
2019-02-19T17:05:21.744Z,9.90
2019-02-19T17:07:12.119Z,9.90
2019-02-19T17:08:54.039Z,9.80
2019-02-19T17:10:44.702Z,9.80
2019-02-19T17:12:45.801Z,9.70
2019-02-19T17:14:36.674Z,9.70
2019-02-19T17:16:46.535Z,9.60
2019-02-19T17:18:44.672Z,9.60
2019-02-19T17:20:29.774Z,9.50
2019-02-19T17:22:10.783Z,9.50
2019-02-19T17:23:55.665Z,9.50
2019-02-19T17:25:49.320Z,9.40
2019-02-19T17:27:41.060Z,9.40
2019-02-19T17:29:26.122Z,9.40
2019-02-19T17:31:16.579Z,9.30
2019-02-19T17:33:04.130Z,9.30
2019-02-19T17:34:44.291Z,9.30
2019-02-19T17:36:24.108Z,9.20
2019-02-19T17:38:14.501Z,9.10
2019-02-19T17:39:52.252Z,9.10
2019-02-19T17:41:39.694Z,9.10
2019-02-19T17:43:17.175Z,9.10
2019-02-19T17:44:58.911Z,9.00
2019-02-19T17:46:39.005Z,9.00
2019-02-19T17:48:43.060Z,8.90
2019-02-19T17:50:38.376Z,8.90
2019-02-19T17:52:27.618Z,8.90
2019-02-19T17:54:25.246Z,8.90
2019-02-19T17:56:29.057Z,8.70
2019-02-19T17:58:23.674Z,8.70
2019-02-19T18:00:33.532Z,8.60
2019-02-19T18:02:10.357Z,8.60
2019-02-19T18:03:48.350Z,8.60
2019-02-19T18:05:28.533Z,8.60
2019-02-19T18:07:22.394Z,8.60
2019-02-19T18:09:17.491Z,8.60
2019-02-19T18:11:20.988Z,8.50
2019-02-19T18:13:04.004Z,8.50
2019-02-19T18:15:07.745Z,8.40
2019-02-19T18:16:58.136Z,8.40
2019-02-19T18:18:48.413Z,8.30
2019-02-19T18:20:20.550Z,8.30
2019-02-19T18:21:52.658Z,8.30
2019-02-19T18:23:24.985Z,8.20
2019-02-19T18:24:57.225Z,8.20
2019-02-19T18:26:29.543Z,8.20
2019-02-19T18:28:01.766Z,8.10
2019-02-19T18:29:33.942Z,8.10
2019-02-19T18:31:06.069Z,8.10
2019-02-19T18:32:38.335Z,8.00
2019-02-19T18:34:10.513Z,8.00
2019-02-19T18:35:42.792Z,8.10
2019-02-19T18:37:15.052Z,8.00
2019-02-19T18:38:47.204Z,7.90
2019-02-19T18:40:19.370Z,7.90
2019-02-19T18:41:51.592Z,7.90
2019-02-19T18:43:23.759Z,7.90
2019-02-19T18:44:56.856Z,7.90
2019-02-19T18:46:29.358Z,7.80
2019-02-19T18:48:01.520Z,7.90
2019-02-19T18:49:33.871Z,7.80
2019-02-19T18:51:05.986Z,7.80
2019-02-19T18:52:38.232Z,7.80
2019-02-19T18:54:10.542Z,7.80
2019-02-19T18:55:42.697Z,7.70
2019-02-19T18:57:14.975Z,7.70
2019-02-19T18:58:47.225Z,7.70
2019-02-19T19:00:19.567Z,7.70
2019-02-19T19:01:51.789Z,7.60
2019-02-19T19:03:23.929Z,7.60
2019-02-19T19:04:56.129Z,7.60
2019-02-19T19:06:28.475Z,7.60
2019-02-19T19:08:00.731Z,7.60
2019-02-19T19:09:33.031Z,7.50
2019-02-19T19:11:05.308Z,7.50
2019-02-19T19:12:37.588Z,7.50
2019-02-19T19:14:09.865Z,7.50
2019-02-19T19:15:42.105Z,7.60
2019-02-19T19:17:14.434Z,7.50
2019-02-19T19:18:46.671Z,7.50
2019-02-19T19:20:18.899Z,7.50
2019-02-19T19:21:51.273Z,7.50
2019-02-19T19:23:23.562Z,7.50
2019-02-19T19:24:55.855Z,7.40
2019-02-19T19:26:28.041Z,7.50
2019-02-19T19:28:00.244Z,7.40
2019-02-19T19:29:32.446Z,7.50
2019-02-19T19:31:04.685Z,7.40
2019-02-19T19:32:37.086Z,7.40
2019-02-19T19:34:09.373Z,7.40
2019-02-19T19:35:41.607Z,7.40
2019-02-19T19:37:13.893Z,7.40
2019-02-19T19:38:46.027Z,7.40
2019-02-19T19:40:18.118Z,7.40
2019-02-19T19:41:50.427Z,7.40
2019-02-19T19:43:22.615Z,7.40
2019-02-19T19:44:54.896Z,7.40
2019-02-19T19:46:27.199Z,7.40
2019-02-19T19:47:59.428Z,7.40
2019-02-19T19:49:31.597Z,7.40
2019-02-19T19:51:03.889Z,7.40
2019-02-19T19:52:36.124Z,7.30
2019-02-19T19:54:08.397Z,7.30
2019-02-19T19:55:40.508Z,7.30
2019-02-19T19:57:12.769Z,7.20
2019-02-19T19:58:44.976Z,7.20
2019-02-19T20:00:17.298Z,7.20
2019-02-19T20:01:49.561Z,7.20
2019-02-19T20:03:21.822Z,7.20
2019-02-19T20:04:54.099Z,7.10
2019-02-19T20:06:26.220Z,7.20
2019-02-19T20:07:58.516Z,7.10
2019-02-19T20:09:30.796Z,7.10
2019-02-19T20:11:03.111Z,7.10
2019-02-19T20:12:35.308Z,7.10
2019-02-19T20:14:07.489Z,7.00
2019-02-19T20:15:39.794Z,7.00
2019-02-19T20:17:12.114Z,7.00
2019-02-19T20:18:44.373Z,7.00
2019-02-19T20:20:16.687Z,7.00
2019-02-19T20:21:48.986Z,7.00
2019-02-19T20:23:21.196Z,7.00
2019-02-19T20:24:53.431Z,7.00
2019-02-19T20:26:46.816Z,7.00
2019-02-19T20:28:18.953Z,6.90
2019-02-19T20:29:51.193Z,6.90
2019-02-19T20:31:23.506Z,6.90
2019-02-19T20:32:55.756Z,6.90
2019-02-19T20:34:28.056Z,6.90
2019-02-19T20:36:00.281Z,6.90
2019-02-19T20:37:32.553Z,6.90
2019-02-19T20:39:05.382Z,6.90
2019-02-19T20:40:37.653Z,6.90
2019-02-19T20:42:09.829Z,6.90
2019-02-19T20:43:53.221Z,6.90
2019-02-19T20:45:25.564Z,6.90
2019-02-19T20:46:57.798Z,6.90
2019-02-19T20:48:30.128Z,7.00
2019-02-19T20:50:02.351Z,6.90
2019-02-19T20:51:36.614Z,6.90
2019-02-19T20:53:08.807Z,6.90
2019-02-19T20:54:41.000Z,6.90
2019-02-19T20:56:13.214Z,6.90
2019-02-19T20:57:45.471Z,6.90
2019-02-19T20:59:17.769Z,6.80
2019-02-19T21:00:50.036Z,6.80
2019-02-19T21:02:22.308Z,6.70
2019-02-19T21:03:54.595Z,6.70